Terminal Aerodrome Forecast
Issued by NWS Wichita, KS

Home | Current Version | Previous Version | Text Only | Print | Product List | Glossary Off
Versions: 1 2 3 4 5 6 7 8 9 10 11 12 13 14 15 16 17 18 19 20

979
FTUS43 KICT 181005 AAC
TAFICT
TAF AMD
KICT 181005Z 1810/1906 11011KT P6SM VCSH BKN005 OVC016
     FM181400 18007KT P6SM OVC016=

USA.gov is the U.S. government's official web portal to all federal, state and local government web resources and services.